ENZV/SVG METAR and TAF weather

Enter ICAO airport designator
Station Type Date Time Source
ENZV METAR 2019/12/16 02:50 UTC NOAA

ENZV 160250Z 22011KT 9999 -SHRA BKN027 06/02 Q0992


Station Type Date Time Source
ENZV Decoded METAR 2019/12/16 02:50 UTC NOAA

Stavanger / Sola, Norway (ENZV) 58-53N 005-38E 9M
Dec 15, 2019 - 09:50 PM EST / 2019.12.16 0250 UTC
Wind: from the SW (220 degrees) at 13 MPH (11 KT):0
Visibility: greater than 7 mile(s):0
Sky conditions: mostly cloudy
Weather: light rain showers
Temperature: 42 F (6 C)
Dew Point: 35 F (2 C)
Relative Humidity: 75%
Pressure (altimeter): 29.29 in. Hg (0992 hPa)
ob: ENZV 160250Z 22011KT 9999 -SHRA BKN027 06/02 Q0992
cycle: 3

Station Type Date Time Source
ENZV TAF 2019/12/15 18:57 UTC NOAA

TAF ENZV 151700Z 1518/1618 15008KT 9999 FEW015TCU BKN030
TEMPO 1518/1602 4000 SHRASN BKN014CB
BECMG 1518/1520 22012KT
BECMG 1605/1607 16008KT
TEMPO 1610/1618 16018KT 4000 SHRASN BKN015CB

Example: see airport list